Aérodrome :
LOGIN :

S'inscrire | Disclaimer

   EN    FR    IT 

 










Légende :    VFR   VFR Marginal   IFR   IFR Intensif   IFR Très Intensif
Visi : 
Plafond : 
>= 8 km
>= 3000ft
5 à 8 km
1000 à 3000 ft
1500m à 5 km
500 à 1000 ft
800 à 1500m
200 à 500 ft
< 800m
< 200 ft
Symboles :   Orages  Brouillard  Fortes neiges  Fortes précipitations  Vent > 20 kt
SIGMETs :   Divers  Orages  Givrage  Turbulence  Onde Orograph.  Cendres Volcan.






- Altitude de l'aérodrome : 11 ft
- Code IATA : PVK


LGPZ - Aktion Lefkada Preveza

DERNIER METAR :
  • 070050Z 00000KT 6000 +RA BKN025 14/14 Q1021 RMK BKN080 WHT

METARs EXPIRÉS :
  • 062350Z 07004KT 9999 BKN025 14/14 Q1021 RERA RMK BKN080 BLU
  • 062250Z 05005KT 7000 RA BKN025 14/14 Q1022 RMK BKN080 WHT

TAF TAF LGPZ
Valide du 07 à 00h jusqu'au 08 à 00h UTC


062300Z 0700/0724 VRB05KT 9000 SCT025 BKN080
TEMPO 0700/0709 5000 RA FEW018TCU BKN020 BKN070
PROB30
TEMPO 0700/0709 3000 TSRA SCT015 FEW018CB BKN025 BKN070
BECMG 0710/0712 28012KT



MET'MAP, la Météo Aéronautique d'un coup d'oeil ! - Copyright ORBIFLY Décembre 2007 - Disclaimer

ORBIFLY MET'MAP TEAM :

Programmation & Développement : Alexandra Zaïnal
Sur une idée originale de : Baudouin d'Aumeries
Assistance à la programmation : Marc-Olivier Méhu
Soutien technique & logistique : Manuel Goepfert

Contact : metmap@orbifly.com




SOURCES & CREDITS :

   NOAA